Time;durP1;ratioP1;P1;durP2;ratioP2;P2;SDS_P1;SDS_P2;PMS_P1;PMS_P2;Temp;Humidity;BMP_temperature;BMP_pressure;BME280_temperature;BME280_humidity;BME280_pressure;Samples;Min_cycle;Max_cycle;Signal;HPM_P1;HPM_P2
2021/08/30 00:00:23;;;;;;;4.18;2.50;;;;;;;;;;4897710;29;20056;-96
2021/08/30 00:03:19;;;;;;;3.38;2.13;;;;;;;;;;4910847;29;20069;-96
2021/08/30 00:06:01;;;;;;;4.75;2.20;;;;;;;;;;4926238;29;20489;-96
2021/08/30 00:08:28;;;;;;;4.13;2.60;;;;;;;;;;4919285;29;20040;-90
2021/08/30 00:10:54;;;;;;;4.57;2.72;;;;;;;;;;4908691;29;20045;-90
2021/08/30 00:13:38;;;;;;;3.72;2.42;;;;;;;;;;4906508;29;20059;-93
2021/08/30 00:16:08;;;;;;;4.25;2.55;;;;;;;;;;4909446;29;20035;-95
2021/08/30 00:18:35;;;;;;;3.85;2.60;;;;;;;;;;4911060;29;20056;-94
2021/08/30 00:21:08;;;;;;;6.30;2.88;;;;;;;;;;4932093;29;20175;-95
2021/08/30 00:23:44;;;;;;;7.25;2.70;;;;;;;;;;4912783;29;20039;-96
2021/08/30 00:26:28;;;;;;;4.50;2.88;;;;;;;;;;4913272;29;20064;-89
2021/08/30 00:28:54;;;;;;;6.80;2.97;;;;;;;;;;4917411;29;20044;-90
2021/08/30 00:31:21;;;;;;;5.20;3.08;;;;;;;;;;4903024;29;20024;-89
2021/08/30 00:33:54;;;;;;;4.47;2.70;;;;;;;;;;4915439;29;20008;-96
2021/08/30 00:36:29;;;;;;;4.47;2.42;;;;;;;;;;5015034;23;20532;-92
2021/08/30 00:41:34;;;;;;;4.85;2.85;;;;;;;;;;5074263;23;20152;-95
2021/08/30 00:44:00;;;;;;;4.40;2.63;;;;;;;;;;4920731;29;20024;-96
2021/08/30 00:46:26;;;;;;;3.80;2.50;;;;;;;;;;4910441;29;20036;-92
2021/08/30 00:48:57;;;;;;;4.70;2.60;;;;;;;;;;4928503;29;20036;-95
2021/08/30 00:51:26;;;;;;;4.43;2.60;;;;;;;;;;4926507;29;20032;-96
2021/08/30 00:53:58;;;;;;;4.03;2.40;;;;;;;;;;4921946;29;20016;-96
2021/08/30 00:56:39;;;;;;;3.63;2.25;;;;;;;;;;4919692;29;20066;-95
2021/08/30 00:59:26;;;;;;;5.95;2.88;;;;;;;;;;4928605;29;20031;-95
2021/08/30 01:02:12;;;;;;;5.05;2.55;;;;;;;;;;4909812;29;20035;-95
2021/08/30 01:04:48;;;;;;;3.43;2.30;;;;;;;;;;4930595;29;20487;-88
2021/08/30 01:07:46;;;;;;;4.28;2.85;;;;;;;;;;4901089;29;20037;-96
2021/08/30 01:10:35;;;;;;;3.92;2.28;;;;;;;;;;4910122;29;20064;-88
2021/08/30 01:13:04;;;;;;;5.28;2.75;;;;;;;;;;4904946;29;20059;-88
2021/08/30 01:15:43;;;;;;;3.55;2.67;;;;;;;;;;4909121;29;20039;-87
2021/08/30 01:18:22;;;;;;;4.63;2.47;;;;;;;;;;4916922;29;20055;-87
2021/08/30 01:26:04;;;;;;;4.55;2.50;;;;;;;;;;5373927;23;20052;-94
2021/08/30 01:28:35;;;;;;;4.45;2.72;;;;;;;;;;4920546;29;20033;-94
2021/08/30 01:31:29;;;;;;;4.07;2.28;;;;;;;;;;4907326;29;20055;-96
2021/08/30 01:34:00;;;;;;;4.18;2.53;;;;;;;;;;4925318;29;20037;-92
2021/08/30 01:36:27;;;;;;;3.70;2.55;;;;;;;;;;4918792;29;20036;-89
2021/08/30 01:38:58;;;;;;;4.72;2.85;;;;;;;;;;4905760;29;20036;-89
2021/08/30 01:41:26;;;;;;;5.10;2.92;;;;;;;;;;5104827;23;20059;-89
2021/08/30 01:43:53;;;;;;;3.45;2.30;;;;;;;;;;4915445;29;20051;-89
2021/08/30 01:46:19;;;;;;;4.32;2.80;;;;;;;;;;4908769;29;20048;-96
2021/08/30 01:48:51;;;;;;;3.88;2.63;;;;;;;;;;4923575;29;20032;-96
2021/08/30 01:51:25;;;;;;;5.03;2.38;;;;;;;;;;4915859;29;20032;-96
2021/08/30 01:53:55;;;;;;;3.95;2.53;;;;;;;;;;4923498;29;20095;-96
2021/08/30 01:56:25;;;;;;;6.28;3.05;;;;;;;;;;4910891;29;20028;-89
2021/08/30 02:01:37;;;;;;;4.68;2.72;;;;;;;;;;4925094;29;20080;-92
2021/08/30 02:04:04;;;;;;;6.00;2.88;;;;;;;;;;5020631;23;20043;-93
2021/08/30 02:06:31;;;;;;;4.80;2.95;;;;;;;;;;4957430;29;20035;-95
2021/08/30 02:08:59;;;;;;;4.63;2.72;;;;;;;;;;4955781;29;20044;-96
2021/08/30 02:11:31;;;;;;;4.55;3.15;;;;;;;;;;4935085;29;20028;-96
2021/08/30 02:14:01;;;;;;;6.55;2.85;;;;;;;;;;4953281;29;20035;-96
2021/08/30 02:16:30;;;;;;;4.38;2.90;;;;;;;;;;4942992;29;20026;-96
2021/08/30 02:18:56;;;;;;;4.40;2.83;;;;;;;;;;4909250;29;20094;-96
2021/08/30 02:21:37;;;;;;;5.22;2.83;;;;;;;;;;4944444;29;20118;-88
2021/08/30 02:24:08;;;;;;;5.45;2.63;;;;;;;;;;4946876;29;20030;-92
2021/08/30 02:26:40;;;;;;;5.07;2.55;;;;;;;;;;4938821;29;20027;-89
2021/08/30 02:29:32;;;;;;;13.65;3.03;;;;;;;;;;4946432;29;20046;-96
2021/08/30 02:32:02;;;;;;;4.82;2.67;;;;;;;;;;4934525;29;20031;-96
2021/08/30 02:34:49;;;;;;;4.90;2.80;;;;;;;;;;4944535;29;20026;-91
2021/08/30 02:37:15;;;;;;;4.05;2.80;;;;;;;;;;4926179;29;20064;-96
2021/08/30 02:39:47;;;;;;;4.30;2.72;;;;;;;;;;4946111;29;20046;-94
2021/08/30 02:42:15;;;;;;;5.22;3.00;;;;;;;;;;4943691;29;20111;-88
2021/08/30 02:44:48;;;;;;;4.57;2.80;;;;;;;;;;4938793;29;20035;-96
2021/08/30 02:47:15;;;;;;;3.30;2.27;;;;;;;;;;4937958;29;20031;-90
2021/08/30 02:49:43;;;;;;;5.10;2.97;;;;;;;;;;4942119;29;20050;-88
2021/08/30 02:52:10;;;;;;;4.60;2.90;;;;;;;;;;4943891;29;20034;-95
2021/08/30 02:54:37;;;;;;;4.55;2.60;;;;;;;;;;4940167;29;20038;-95
2021/08/30 02:57:06;;;;;;;5.35;2.90;;;;;;;;;;4923344;29;20051;-96
2021/08/30 02:59:33;;;;;;;4.28;2.80;;;;;;;;;;4908737;29;20040;-96
2021/08/30 03:02:08;;;;;;;4.47;3.05;;;;;;;;;;4908772;29;20132;-96
2021/08/30 03:04:36;;;;;;;3.50;2.47;;;;;;;;;;4931485;29;20066;-96
2021/08/30 03:07:03;;;;;;;4.50;2.90;;;;;;;;;;4943781;29;20023;-96
2021/08/30 03:12:09;;;;;;;3.80;2.58;;;;;;;;;;4978441;23;20048;-87
2021/08/30 03:14:39;;;;;;;5.93;3.25;;;;;;;;;;4935895;29;20035;-88
2021/08/30 03:17:13;;;;;;;5.28;3.20;;;;;;;;;;5104109;23;20054;-96
2021/08/30 03:19:39;;;;;;;;;;;;;;;;;;4952672;29;20031;-89
2021/08/30 03:22:06;;;;;;;4.15;2.83;;;;;;;;;;4944639;29;19906;-94
2021/08/30 03:24:52;;;;;;;5.43;2.92;;;;;;;;;;4947261;29;20070;-93
2021/08/30 03:27:18;;;;;;;4.60;2.83;;;;;;;;;;4955382;29;20031;-93
2021/08/30 03:32:16;;;;;;;4.20;2.70;;;;;;;;;;4909954;29;20127;-93
2021/08/30 03:34:45;;;;;;;7.35;3.28;;;;;;;;;;4896358;29;20036;-96
2021/08/30 03:37:11;;;;;;;4.97;2.25;;;;;;;;;;4889027;29;20091;-93
2021/08/30 03:46:04;;;;;;;4.97;3.13;;;;;;;;;;4921701;29;20040;-95
2021/08/30 03:48:46;;;;;;;5.47;3.20;;;;;;;;;;4918605;29;20048;-87
2021/08/30 03:51:14;;;;;;;5.53;3.50;;;;;;;;;;4913410;29;20052;-92
2021/08/30 03:54:05;;;;;;;6.43;3.33;;;;;;;;;;4903774;29;20039;-92
2021/08/30 03:56:34;;;;;;;5.63;3.35;;;;;;;;;;4899170;29;20036;-96
2021/08/30 03:59:06;;;;;;;4.70;2.97;;;;;;;;;;4920925;29;20036;-96
2021/08/30 04:01:34;;;;;;;5.45;3.42;;;;;;;;;;4904942;29;20036;-96
2021/08/30 04:04:01;;;;;;;6.50;3.75;;;;;;;;;;4888373;29;20505;-89
2021/08/30 04:06:30;;;;;;;6.35;4.28;;;;;;;;;;4903461;29;20050;-96
2021/08/30 04:08:57;;;;;;;7.90;4.55;;;;;;;;;;4907823;29;20043;-89
2021/08/30 04:11:40;;;;;;;9.40;4.85;;;;;;;;;;4906673;29;20111;-96
2021/08/30 04:14:11;;;;;;;7.00;4.00;;;;;;;;;;4895983;29;20058;-96
2021/08/30 04:16:56;;;;;;;7.72;4.72;;;;;;;;;;4895820;29;20032;-96
2021/08/30 04:19:24;;;;;;;5.80;3.78;;;;;;;;;;4931224;29;20028;-93
2021/08/30 04:22:03;;;;;;;6.78;4.95;;;;;;;;;;4907497;29;20482;-96
2021/08/30 04:24:31;;;;;;;7.90;4.40;;;;;;;;;;4907964;29;20082;-93
2021/08/30 04:27:10;;;;;;;7.22;4.72;;;;;;;;;;4903804;29;20024;-96
2021/08/30 04:29:36;;;;;;;6.60;4.80;;;;;;;;;;4902304;29;20127;-95
2021/08/30 04:32:09;;;;;;;6.65;4.57;;;;;;;;;;4922020;29;20435;-96
2021/08/30 04:34:36;;;;;;;7.40;4.55;;;;;;;;;;4910633;29;20019;-92
2021/08/30 04:37:04;;;;;;;8.35;4.70;;;;;;;;;;4920668;29;20028;-92
2021/08/30 04:39:33;;;;;;;8.48;4.53;;;;;;;;;;4912319;29;20029;-94
2021/08/30 04:42:22;;;;;;;7.63;4.90;;;;;;;;;;4920439;29;20469;-96
2021/08/30 04:48:09;;;;;;;9.65;4.28;;;;;;;;;;4913173;29;20062;-94
2021/08/30 04:50:50;;;;;;;8.85;4.55;;;;;;;;;;4920121;29;20040;-91
2021/08/30 04:53:40;;;;;;;6.35;4.00;;;;;;;;;;4911706;29;20036;-96
2021/08/30 04:56:10;;;;;;;10.35;4.57;;;;;;;;;;4928425;29;20030;-96
2021/08/30 04:58:38;;;;;;;5.75;3.90;;;;;;;;;;4909115;29;20028;-96
2021/08/30 05:01:08;;;;;;;5.95;3.75;;;;;;;;;;4909775;29;20028;-96
2021/08/30 05:03:39;;;;;;;8.32;4.60;;;;;;;;;;4908416;29;20047;-87
2021/08/30 05:06:06;;;;;;;8.93;4.28;;;;;;;;;;4907191;29;20032;-90
2021/08/30 05:08:51;;;;;;;6.18;4.25;;;;;;;;;;4905175;29;20386;-96
2021/08/30 05:11:19;;;;;;;5.43;3.75;;;;;;;;;;4905883;29;20031;-96
2021/08/30 05:13:48;;;;;;;6.22;4.22;;;;;;;;;;4906631;29;20028;-95
2021/08/30 05:16:16;;;;;;;5.00;3.60;;;;;;;;;;4906564;29;20043;-96
2021/08/30 05:18:45;;;;;;;6.20;3.92;;;;;;;;;;4905512;29;20024;-95
2021/08/30 05:21:11;;;;;;;6.15;4.18;;;;;;;;;;4905615;29;20028;-96
2021/08/30 05:23:37;;;;;;;7.45;3.80;;;;;;;;;;4904765;29;20125;-91
2021/08/30 05:26:09;;;;;;;5.07;3.50;;;;;;;;;;4904298;29;20027;-95
2021/08/30 05:28:47;;;;;;;7.47;3.50;;;;;;;;;;4900744;29;20054;-91
2021/08/30 05:34:16;;;;;;;4.00;2.75;;;;;;;;;;4924844;29;20088;-95
2021/08/30 05:36:43;;;;;;;4.53;3.05;;;;;;;;;;4905690;29;20390;-93
2021/08/30 05:39:12;;;;;;;3.72;2.88;;;;;;;;;;4923316;29;20036;-95
2021/08/30 05:41:59;;;;;;;5.07;2.60;;;;;;;;;;4925657;29;20050;-95
2021/08/30 05:47:31;;;;;;;2.88;2.00;;;;;;;;;;4926564;29;20060;-95
2021/08/30 05:50:12;;;;;;;2.72;1.80;;;;;;;;;;4908753;29;20042;-95
2021/08/30 05:53:22;;;;;;;3.60;1.70;;;;;;;;;;4921088;29;20482;-94
2021/08/30 05:55:59;;;;;;;2.42;1.38;;;;;;;;;;4906118;29;20393;-96
2021/08/30 06:11:23;;;;;;;3.60;1.98;;;;;;;;;;4848303;29;20034;-95
2021/08/30 06:13:49;;;;;;;4.50;2.13;;;;;;;;;;4828701;29;20110;-93
2021/08/30 06:16:15;;;;;;;6.28;2.28;;;;;;;;;;4901912;29;20535;-93
2021/08/30 06:18:41;;;;;;;2.78;1.60;;;;;;;;;;4903467;29;20031;-94
2021/08/30 06:21:07;;;;;;;5.35;1.75;;;;;;;;;;4902945;29;20024;-91
2021/08/30 06:23:34;;;;;;;3.28;1.90;;;;;;;;;;4904403;29;20105;-92
2021/08/30 06:26:00;;;;;;;3.40;2.20;;;;;;;;;;4897699;29;20103;-93
2021/08/30 06:28:26;;;;;;;4.35;2.90;;;;;;;;;;4892507;29;20036;-94
2021/08/30 06:30:53;;;;;;;5.80;2.97;;;;;;;;;;4903672;29;20024;-94
2021/08/30 06:33:19;;;;;;;4.00;2.67;;;;;;;;;;4904234;29;20474;-92
2021/08/30 06:36:38;;;;;;;3.15;2.28;;;;;;;;;;4906726;29;20415;-93
2021/08/30 06:39:09;;;;;;;3.80;2.05;;;;;;;;;;4830524;29;20094;-91
2021/08/30 06:42:32;;;;;;;4.25;2.05;;;;;;;;;;4829067;29;20065;-94
2021/08/30 06:46:17;;;;;;;3.00;2.00;;;;;;;;;;4789858;29;20031;-93
2021/08/30 06:48:16;;;;;;;4.75;1.75;;;;;;;;;;4785072;29;20134;-95
2021/08/30 06:50:45;;;;;;;3.75;2.15;;;;;;;;;;4784296;30;20516;-96
2021/08/30 06:53:17;;;;;;;2.53;1.58;;;;;;;;;;4789191;29;20046;-93
2021/08/30 06:55:43;;;;;;;2.85;1.67;;;;;;;;;;4782256;30;20039;-90
2021/08/30 06:58:09;;;;;;;3.42;1.75;;;;;;;;;;4790678;29;20077;-94
2021/08/30 07:00:35;;;;;;;4.25;1.80;;;;;;;;;;4819157;29;20398;-93
2021/08/30 07:03:02;;;;;;;2.08;1.52;;;;;;;;;;4881045;29;20569;-94
2021/08/30 07:05:28;;;;;;;2.25;1.52;;;;;;;;;;4885418;29;20049;-93
2021/08/30 07:07:54;;;;;;;2.78;1.63;;;;;;;;;;4883647;29;20048;-92
2021/08/30 07:10:20;;;;;;;2.10;1.35;;;;;;;;;;4882844;29;20029;-92
2021/08/30 07:12:46;;;;;;;2.80;1.70;;;;;;;;;;4883998;29;20032;-91
2021/08/30 07:15:12;;;;;;;2.33;1.65;;;;;;;;;;4883969;29;20036;-93
2021/08/30 07:17:39;;;;;;;2.85;1.60;;;;;;;;;;4885764;29;20013;-93
2021/08/30 07:20:05;;;;;;;3.58;1.80;;;;;;;;;;4884766;29;20032;-93
2021/08/30 07:22:31;;;;;;;2.47;1.50;;;;;;;;;;4883718;29;20028;-91
2021/08/30 07:24:58;;;;;;;4.38;1.75;;;;;;;;;;4884914;29;20032;-92
2021/08/30 07:27:24;;;;;;;2.97;1.60;;;;;;;;;;4902316;29;20036;-93
2021/08/30 07:29:50;;;;;;;2.63;1.65;;;;;;;;;;4901929;29;20485;-92
2021/08/30 07:32:17;;;;;;;2.80;1.63;;;;;;;;;;4902528;29;20027;-90
2021/08/30 07:34:43;;;;;;;5.70;1.88;;;;;;;;;;4902300;29;20036;-91
2021/08/30 07:37:09;;;;;;;2.15;1.30;;;;;;;;;;4902712;29;20028;-91
2021/08/30 07:39:35;;;;;;;3.92;1.40;;;;;;;;;;4902098;29;20499;-91
2021/08/30 07:42:01;;;;;;;3.50;1.88;;;;;;;;;;4902171;29;20378;-93
2021/08/30 07:44:28;;;;;;;2.63;1.65;;;;;;;;;;4902155;29;20032;-92
2021/08/30 07:46:54;;;;;;;3.17;1.60;;;;;;;;;;4903585;29;20024;-90
2021/08/30 07:49:20;;;;;;;2.28;1.52;;;;;;;;;;4918718;29;20044;-92
2021/08/30 07:51:46;;;;;;;2.40;1.55;;;;;;;;;;4902420;29;20077;-90
2021/08/30 07:54:13;;;;;;;2.25;1.50;;;;;;;;;;4901816;29;20473;-93
2021/08/30 07:56:40;;;;;;;4.18;1.75;;;;;;;;;;4901955;29;20036;-87
2021/08/30 07:59:08;;;;;;;2.60;1.55;;;;;;;;;;4901208;29;20039;-91
2021/08/30 08:01:34;;;;;;;4.05;1.52;;;;;;;;;;4901875;29;20052;-91
2021/08/30 08:04:00;;;;;;;5.90;1.70;;;;;;;;;;4901764;29;20036;-92
2021/08/30 08:06:26;;;;;;;3.33;1.73;;;;;;;;;;4918158;29;20028;-91
2021/08/30 08:08:53;;;;;;;2.17;1.45;;;;;;;;;;4901670;29;20221;-91
2021/08/30 08:11:19;;;;;;;2.70;1.75;;;;;;;;;;4901551;29;20111;-91
2021/08/30 08:13:45;;;;;;;2.30;1.60;;;;;;;;;;4901609;29;20093;-90
2021/08/30 08:16:11;;;;;;;6.47;1.90;;;;;;;;;;4901833;29;20034;-92
2021/08/30 08:18:37;;;;;;;6.78;1.88;;;;;;;;;;4900842;29;20042;-91
2021/08/30 08:21:05;;;;;;;2.30;1.65;;;;;;;;;;4901865;29;20028;-89
2021/08/30 08:23:32;;;;;;;2.75;1.80;;;;;;;;;;4901825;29;20035;-89
2021/08/30 08:26:00;;;;;;;3.58;1.70;;;;;;;;;;4896093;29;20025;-89
2021/08/30 08:28:26;;;;;;;2.45;1.50;;;;;;;;;;4884388;29;20064;-90
2021/08/30 08:30:53;;;;;;;2.42;1.50;;;;;;;;;;4882393;29;20028;-90
2021/08/30 08:33:19;;;;;;;2.47;1.83;;;;;;;;;;4882354;29;20119;-90
2021/08/30 08:35:45;;;;;;;2.40;1.50;;;;;;;;;;4882246;29;20040;-90
2021/08/30 08:38:12;;;;;;;3.00;1.63;;;;;;;;;;4882311;29;20056;-92
2021/08/30 08:40:39;;;;;;;6.13;1.80;;;;;;;;;;4882444;29;20040;-91
2021/08/30 08:43:12;;;;;;;4.13;1.90;;;;;;;;;;4882211;29;20028;-88
2021/08/30 08:45:38;;;;;;;2.88;1.60;;;;;;;;;;4882269;29;20031;-90
2021/08/30 08:48:05;;;;;;;4.40;2.03;;;;;;;;;;4882353;29;20039;-91
2021/08/30 08:50:31;;;;;;;3.88;1.90;;;;;;;;;;4882192;29;20037;-91
2021/08/30 08:52:58;;;;;;;2.78;1.58;;;;;;;;;;4881865;29;20025;-89
2021/08/30 08:55:24;;;;;;;2.53;1.50;;;;;;;;;;4881902;29;20402;-90
2021/08/30 08:57:51;;;;;;;2.42;1.48;;;;;;;;;;4882322;29;20123;-92
2021/08/30 09:00:17;;;;;;;3.17;1.65;;;;;;;;;;4882584;29;20021;-89
2021/08/30 09:02:44;;;;;;;3.53;1.75;;;;;;;;;;4901560;29;20495;-89
2021/08/30 09:05:22;;;;;;;2.33;1.50;;;;;;;;;;4900478;29;20082;-86
2021/08/30 09:07:48;;;;;;;2.78;1.70;;;;;;;;;;4900750;29;20032;-89
2021/08/30 09:10:16;;;;;;;3.20;2.05;;;;;;;;;;4903193;29;20024;-87
2021/08/30 09:12:43;;;;;;;3.13;1.60;;;;;;;;;;4905531;29;20032;-91
2021/08/30 09:15:13;;;;;;;2.75;1.63;;;;;;;;;;4900605;29;20028;-91
2021/08/30 09:17:52;;;;;;;2.63;1.65;;;;;;;;;;4899087;29;20131;-89
2021/08/30 09:20:19;;;;;;;2.67;1.50;;;;;;;;;;4899427;29;20020;-90
2021/08/30 09:22:46;;;;;;;3.67;1.20;;;;;;;;;;4922712;29;20462;-91
2021/08/30 09:25:12;;;;;;;2.03;1.20;;;;;;;;;;4899164;29;20024;-90
2021/08/30 09:27:44;;;;;;;2.05;1.30;;;;;;;;;;4915951;29;20024;-90
2021/08/30 09:30:12;;;;;;;2.40;1.33;;;;;;;;;;4899197;29;20484;-91
2021/08/30 09:32:38;;;;;;;1.70;1.10;;;;;;;;;;4923393;29;20031;-90
2021/08/30 09:35:05;;;;;;;2.05;1.08;;;;;;;;;;4932569;29;20147;-89
2021/08/30 09:37:35;;;;;;;3.08;1.27;;;;;;;;;;4935384;29;20036;-90
2021/08/30 09:40:02;;;;;;;1.88;1.13;;;;;;;;;;4935180;29;20024;-89
2021/08/30 09:42:29;;;;;;;2.20;1.30;;;;;;;;;;4935253;29;20160;-87
2021/08/30 09:45:06;;;;;;;1.60;0.95;;;;;;;;;;4934946;29;20028;-87
2021/08/30 09:47:32;;;;;;;3.35;1.33;;;;;;;;;;4935026;29;20039;-90
2021/08/30 09:50:02;;;;;;;2.38;1.20;;;;;;;;;;4922264;29;20040;-88
2021/08/30 09:52:28;;;;;;;1.80;1.30;;;;;;;;;;4935259;29;20502;-87
2021/08/30 09:54:54;;;;;;;2.92;1.30;;;;;;;;;;4921080;29;20477;-88
2021/08/30 09:57:20;;;;;;;2.03;1.30;;;;;;;;;;4934951;29;20048;-89
2021/08/30 09:59:47;;;;;;;5.05;1.42;;;;;;;;;;4934712;29;20102;-89
2021/08/30 10:02:14;;;;;;;2.10;1.40;;;;;;;;;;4934270;29;20080;-88
2021/08/30 10:04:41;;;;;;;2.78;1.30;;;;;;;;;;4902976;29;20118;-91
2021/08/30 10:07:08;;;;;;;2.40;1.60;;;;;;;;;;4902908;29;20115;-89
2021/08/30 10:09:35;;;;;;;2.10;1.27;;;;;;;;;;4919945;29;20028;-88
2021/08/30 10:12:01;;;;;;;2.50;1.60;;;;;;;;;;4903400;29;20119;-88
2021/08/30 10:14:29;;;;;;;2.35;1.35;;;;;;;;;;4903082;29;20024;-90
2021/08/30 10:16:57;;;;;;;2.25;1.35;;;;;;;;;;4903077;29;20063;-90
2021/08/30 10:19:27;;;;;;;2.67;1.30;;;;;;;;;;4902917;29;20074;-89
2021/08/30 10:21:53;;;;;;;1.65;1.23;;;;;;;;;;4903639;29;20389;-88
2021/08/30 10:24:20;;;;;;;2.20;1.38;;;;;;;;;;4903162;29;20028;-91
2021/08/30 10:26:47;;;;;;;3.80;1.70;;;;;;;;;;4902929;29;20039;-90
2021/08/30 10:29:13;;;;;;;3.03;1.98;;;;;;;;;;4902638;29;20043;-90
2021/08/30 10:31:47;;;;;;;2.60;1.70;;;;;;;;;;4902494;29;20123;-92
2021/08/30 10:34:23;;;;;;;3.13;2.10;;;;;;;;;;4902829;29;20028;-91
2021/08/30 10:36:49;;;;;;;4.45;2.55;;;;;;;;;;4903578;29;20027;-91
2021/08/30 10:39:15;;;;;;;3.88;1.88;;;;;;;;;;4902380;29;20040;-91
2021/08/30 10:41:44;;;;;;;2.65;1.80;;;;;;;;;;4902346;29;20035;-91
2021/08/30 10:44:15;;;;;;;2.97;1.70;;;;;;;;;;4901875;29;20382;-92
2021/08/30 10:46:46;;;;;;;3.47;1.70;;;;;;;;;;4902364;29;20048;-90
2021/08/30 10:49:15;;;;;;;2.40;1.52;;;;;;;;;;4902790;29;20035;-88
2021/08/30 10:51:41;;;;;;;2.78;1.80;;;;;;;;;;4902221;29;20069;-91
2021/08/30 10:54:10;;;;;;;4.63;1.80;;;;;;;;;;4902002;29;20048;-90
2021/08/30 10:56:36;;;;;;;2.97;2.20;;;;;;;;;;4901888;29;20119;-89
2021/08/30 10:59:11;;;;;;;2.60;1.77;;;;;;;;;;4901692;29;20406;-89
2021/08/30 11:01:39;;;;;;;2.47;1.70;;;;;;;;;;4902135;29;20066;-89
2021/08/30 11:04:06;;;;;;;2.55;1.70;;;;;;;;;;4901684;29;20036;-89
2021/08/30 11:06:32;;;;;;;2.78;1.45;;;;;;;;;;4918735;29;20055;-88
2021/08/30 11:08:59;;;;;;;2.50;1.63;;;;;;;;;;4901786;29;20115;-90
2021/08/30 11:11:26;;;;;;;3.17;1.67;;;;;;;;;;4901830;29;20059;-89
2021/08/30 11:14:06;;;;;;;2.05;1.40;;;;;;;;;;4901720;29;20035;-88
2021/08/30 11:16:33;;;;;;;4.43;1.80;;;;;;;;;;4901782;29;20367;-90
2021/08/30 11:19:03;;;;;;;3.42;1.90;;;;;;;;;;4901475;29;20493;-90
2021/08/30 11:21:36;;;;;;;2.40;1.40;;;;;;;;;;4901707;29;20034;-90
2021/08/30 11:24:03;;;;;;;2.83;2.00;;;;;;;;;;4901622;29;20028;-90
2021/08/30 11:26:29;;;;;;;2.65;1.65;;;;;;;;;;4889068;29;20077;-87
2021/08/30 11:28:56;;;;;;;2.78;1.85;;;;;;;;;;4883093;29;20031;-90
2021/08/30 11:31:23;;;;;;;2.38;1.63;;;;;;;;;;4882623;29;20036;-89
2021/08/30 11:33:49;;;;;;;3.22;1.90;;;;;;;;;;4882757;29;20121;-90
2021/08/30 11:36:16;;;;;;;2.67;1.80;;;;;;;;;;4882588;29;20028;-86
2021/08/30 11:38:53;;;;;;;4.82;2.10;;;;;;;;;;4882500;29;20131;-89
2021/08/30 11:41:20;;;;;;;2.83;1.50;;;;;;;;;;4882586;29;20021;-88
2021/08/30 11:43:46;;;;;;;5.25;1.77;;;;;;;;;;4882394;29;20037;-89
2021/08/30 11:46:12;;;;;;;10.10;2.22;;;;;;;;;;4882321;29;20085;-89
2021/08/30 11:48:38;;;;;;;7.28;1.80;;;;;;;;;;4882212;29;20045;-89
2021/08/30 11:51:05;;;;;;;2.10;1.35;;;;;;;;;;4882385;29;20482;-87
2021/08/30 11:53:31;;;;;;;3.13;1.67;;;;;;;;;;4899338;29;20111;-88
2021/08/30 11:55:58;;;;;;;2.78;1.60;;;;;;;;;;4881937;29;20029;-88
2021/08/30 11:58:33;;;;;;;2.28;1.55;;;;;;;;;;4881886;29;20036;-89
2021/08/30 12:01:05;;;;;;;3.70;1.70;;;;;;;;;;4888002;29;20079;-88
2021/08/30 12:03:41;;;;;;;1.97;1.10;;;;;;;;;;4905267;29;20032;-87
2021/08/30 12:06:18;;;;;;;6.20;1.35;;;;;;;;;;4906380;29;20269;-88
2021/08/30 12:08:51;;;;;;;2.10;1.30;;;;;;;;;;4901387;29;20075;-88
2021/08/30 12:11:18;;;;;;;2.28;1.20;;;;;;;;;;4900710;29;20036;-87
2021/08/30 12:16:23;;;;;;;2.97;1.30;;;;;;;;;;4918584;29;20024;-89
2021/08/30 12:18:50;;;;;;;4.15;1.10;;;;;;;;;;4900724;29;20466;-88
2021/08/30 12:21:26;;;;;;;1.60;1.08;;;;;;;;;;4900537;29;20115;-88
2021/08/30 12:23:52;;;;;;;6.95;1.40;;;;;;;;;;4918437;29;20127;-88
2021/08/30 12:26:22;;;;;;;1.70;1.15;;;;;;;;;;4900356;29;20083;-89
2021/08/30 12:28:50;;;;;;;2.60;1.50;;;;;;;;;;4899789;29;20063;-87
2021/08/30 12:31:24;;;;;;;3.53;1.30;;;;;;;;;;4900313;29;20034;-88
2021/08/30 12:34:00;;;;;;;2.38;1.50;;;;;;;;;;4900538;29;20032;-90
2021/08/30 12:36:26;;;;;;;4.70;2.05;;;;;;;;;;4900588;29;20035;-90
2021/08/30 12:38:52;;;;;;;2.63;1.60;;;;;;;;;;4900457;29;20044;-89
2021/08/30 12:41:18;;;;;;;2.47;1.60;;;;;;;;;;4900558;29;20024;-89
2021/08/30 12:43:48;;;;;;;2.42;1.52;;;;;;;;;;4901047;29;20032;-90
2021/08/30 12:46:14;;;;;;;3.63;1.80;;;;;;;;;;4900382;29;20024;-86
2021/08/30 12:48:40;;;;;;;2.70;1.58;;;;;;;;;;4900252;29;20035;-88
2021/08/30 12:51:07;;;;;;;2.40;1.52;;;;;;;;;;4896814;29;20070;-89
2021/08/30 12:53:33;;;;;;;2.65;1.70;;;;;;;;;;4900501;29;20046;-92
2021/08/30 12:56:00;;;;;;;4.03;1.52;;;;;;;;;;4900923;29;20028;-88
2021/08/30 12:58:26;;;;;;;2.25;1.50;;;;;;;;;;4900539;29;20036;-88
2021/08/30 13:00:52;;;;;;;2.30;1.40;;;;;;;;;;4900389;29;20048;-88
2021/08/30 13:03:20;;;;;;;2.20;1.42;;;;;;;;;;4901577;29;20024;-91
2021/08/30 13:05:47;;;;;;;2.20;1.00;;;;;;;;;;4900650;29;20032;-90
2021/08/30 13:08:14;;;;;;;1.80;1.17;;;;;;;;;;4902324;29;20165;-87
2021/08/30 13:10:41;;;;;;;3.53;1.30;;;;;;;;;;4920870;29;20485;-87
2021/08/30 13:13:08;;;;;;;2.45;1.40;;;;;;;;;;4904081;29;20028;-90
2021/08/30 13:15:35;;;;;;;2.63;1.60;;;;;;;;;;4904826;29;20035;-90
2021/08/30 13:18:01;;;;;;;2.42;1.30;;;;;;;;;;4904238;29;20040;-90
2021/08/30 13:20:28;;;;;;;2.80;1.55;;;;;;;;;;4921593;29;20381;-90
2021/08/30 13:22:55;;;;;;;2.35;1.30;;;;;;;;;;4905199;29;20119;-91
2021/08/30 13:25:22;;;;;;;2.17;1.30;;;;;;;;;;4904824;29;20036;-90
2021/08/30 13:27:51;;;;;;;2.60;1.30;;;;;;;;;;4904250;29;20024;-91
2021/08/30 13:30:18;;;;;;;2.25;1.30;;;;;;;;;;4903925;29;20103;-89
2021/08/30 13:32:44;;;;;;;2.22;1.50;;;;;;;;;;4904169;29;20027;-91
2021/08/30 13:35:12;;;;;;;2.85;1.15;;;;;;;;;;4921000;29;20039;-90
2021/08/30 13:37:39;;;;;;;1.50;1.02;;;;;;;;;;4921351;29;20039;-91
2021/08/30 13:40:05;;;;;;;2.00;0.95;;;;;;;;;;4920964;29;20095;-90
2021/08/30 13:42:32;;;;;;;1.70;1.00;;;;;;;;;;4904105;29;20494;-90
2021/08/30 13:44:58;;;;;;;1.80;1.10;;;;;;;;;;4904090;29;20063;-91
2021/08/30 13:47:24;;;;;;;1.70;1.00;;;;;;;;;;4921016;29;20035;-91
2021/08/30 13:49:52;;;;;;;2.30;1.13;;;;;;;;;;4903840;29;20398;-90
2021/08/30 13:52:19;;;;;;;2.17;1.17;;;;;;;;;;4903790;29;20032;-90
2021/08/30 13:54:46;;;;;;;1.85;1.10;;;;;;;;;;4903763;29;20486;-90
2021/08/30 13:57:12;;;;;;;2.35;1.30;;;;;;;;;;4903663;29;20039;-91
2021/08/30 13:59:38;;;;;;;2.30;1.27;;;;;;;;;;4903774;29;20035;-90
2021/08/30 14:02:05;;;;;;;2.17;1.13;;;;;;;;;;4903637;29;20083;-91
2021/08/30 14:04:32;;;;;;;1.92;1.20;;;;;;;;;;4903805;29;20036;-91
2021/08/30 14:06:58;;;;;;;2.13;1.25;;;;;;;;;;4903841;29;20020;-90
2021/08/30 14:09:25;;;;;;;2.70;1.10;;;;;;;;;;4903592;29;20035;-91
2021/08/30 14:11:51;;;;;;;1.90;1.23;;;;;;;;;;4903788;29;20028;-90
2021/08/30 14:14:17;;;;;;;4.60;1.40;;;;;;;;;;4903410;29;20025;-90
2021/08/30 14:16:44;;;;;;;2.42;1.30;;;;;;;;;;4920418;29;20393;-90
2021/08/30 14:19:10;;;;;;;3.42;1.27;;;;;;;;;;4919951;29;20071;-90
2021/08/30 14:21:37;;;;;;;1.80;1.13;;;;;;;;;;4903556;29;20028;-90
2021/08/30 14:24:04;;;;;;;4.28;0.98;;;;;;;;;;4920967;29;20059;-90
2021/08/30 14:26:31;;;;;;;2.53;1.02;;;;;;;;;;4903219;29;20035;-90
2021/08/30 14:28:57;;;;;;;2.45;0.90;;;;;;;;;;4919872;29;20080;-89
2021/08/30 14:31:25;;;;;;;2.33;1.15;;;;;;;;;;4920020;29;20100;-90
2021/08/30 14:33:53;;;;;;;5.55;1.15;;;;;;;;;;4903351;29;20032;-90
2021/08/30 14:36:20;;;;;;;2.58;1.25;;;;;;;;;;4905182;29;20028;-90
2021/08/30 14:38:46;;;;;;;2.40;1.40;;;;;;;;;;4903855;29;20119;-90
2021/08/30 14:41:13;;;;;;;2.47;1.30;;;;;;;;;;4903324;29;20043;-90
2021/08/30 14:43:39;;;;;;;5.80;1.20;;;;;;;;;;4920025;29;20031;-90
2021/08/30 14:46:06;;;;;;;2.45;1.35;;;;;;;;;;4903251;29;20032;-91
2021/08/30 14:48:33;;;;;;;2.00;1.20;;;;;;;;;;4903260;29;20024;-90
2021/08/30 14:51:00;;;;;;;2.17;1.15;;;;;;;;;;4920086;29;20028;-90
2021/08/30 14:53:26;;;;;;;1.77;1.02;;;;;;;;;;4920047;29;20403;-90
2021/08/30 14:55:53;;;;;;;3.08;1.35;;;;;;;;;;4902786;29;20088;-90
2021/08/30 14:58:19;;;;;;;4.60;0.95;;;;;;;;;;4920007;29;20044;-89
2021/08/30 15:00:47;;;;;;;4.50;1.10;;;;;;;;;;4923709;29;20112;-90
2021/08/30 15:03:14;;;;;;;2.50;1.23;;;;;;;;;;4907034;29;20039;-89
2021/08/30 15:05:42;;;;;;;2.15;1.23;;;;;;;;;;4919925;29;20050;-90
2021/08/30 15:08:12;;;;;;;1.88;1.20;;;;;;;;;;4902605;29;20032;-89
2021/08/30 15:10:39;;;;;;;5.90;1.20;;;;;;;;;;4902975;29;20107;-90
2021/08/30 15:13:05;;;;;;;2.08;1.15;;;;;;;;;;4902614;29;20032;-90
2021/08/30 15:15:35;;;;;;;1.83;0.98;;;;;;;;;;4902498;29;20477;-90
2021/08/30 15:18:02;;;;;;;1.48;0.90;;;;;;;;;;4902303;29;20067;-90
2021/08/30 15:20:29;;;;;;;2.88;1.08;;;;;;;;;;4902303;29;20083;-90
2021/08/30 15:22:56;;;;;;;2.42;1.08;;;;;;;;;;4902298;29;20039;-90
2021/08/30 15:25:26;;;;;;;1.60;0.90;;;;;;;;;;4904800;29;20088;-90
2021/08/30 15:27:53;;;;;;;2.22;1.00;;;;;;;;;;4902717;29;20126;-90
2021/08/30 15:30:19;;;;;;;7.65;1.40;;;;;;;;;;4901732;29;20032;-90
2021/08/30 15:32:46;;;;;;;1.63;1.00;;;;;;;;;;4902009;29;20370;-91
2021/08/30 15:35:12;;;;;;;2.58;1.17;;;;;;;;;;4901889;29;20028;-90
2021/08/30 15:37:39;;;;;;;1.63;1.02;;;;;;;;;;4901801;29;20051;-90
2021/08/30 15:40:08;;;;;;;1.70;1.10;;;;;;;;;;4902085;29;20031;-91
2021/08/30 15:42:35;;;;;;;2.42;1.25;;;;;;;;;;4902045;29;20028;-91
2021/08/30 15:45:02;;;;;;;1.73;1.00;;;;;;;;;;4902100;29;20594;-90